sensor_id;sensor_type;location;lat;lon;timestamp;P1;durP1;ratioP1;P2;durP2;ratioP2
61531;SDS011;47397;48.194;11.632;2022-07-29T00:00:51;1.70;;;1.38;;
61531;SDS011;47397;48.194;11.632;2022-07-29T00:01:51;2.67;;;1.70;;
61531;SDS011;47397;48.194;11.632;2022-07-29T00:02:51;2.72;;;1.65;;
61531;SDS011;47397;48.194;11.632;2022-07-29T00:03:52;2.15;;;1.63;;
61531;SDS011;47397;48.194;11.632;2022-07-29T00:04:52;3.33;;;1.60;;
61531;SDS011;47397;48.194;11.632;2022-07-29T00:05:53;3.28;;;1.70;;
61531;SDS011;47397;48.194;11.632;2022-07-29T00:06:53;2.20;;;1.75;;
61531;SDS011;47397;48.194;11.632;2022-07-29T00:07:54;2.88;;;1.50;;
61531;SDS011;47397;48.194;11.632;2022-07-29T00:08:54;2.95;;;1.70;;
61531;SDS011;47397;48.194;11.632;2022-07-29T00:09:55;3.35;;;1.67;;
61531;SDS011;47397;48.194;11.632;2022-07-29T00:10:56;2.13;;;1.58;;
61531;SDS011;47397;48.194;11.632;2022-07-29T00:11:58;3.45;;;1.90;;
61531;SDS011;47397;48.194;11.632;2022-07-29T00:12:59;2.90;;;1.60;;
61531;SDS011;47397;48.194;11.632;2022-07-29T00:14:00;2.08;;;1.48;;
61531;SDS011;47397;48.194;11.632;2022-07-29T00:15:00;2.65;;;1.65;;
61531;SDS011;47397;48.194;11.632;2022-07-29T00:16:01;2.20;;;1.35;;
61531;SDS011;47397;48.194;11.632;2022-07-29T00:17:01;2.33;;;1.55;;
61531;SDS011;47397;48.194;11.632;2022-07-29T00:18:02;2.88;;;1.60;;
61531;SDS011;47397;48.194;11.632;2022-07-29T00:19:03;2.33;;;1.58;;
61531;SDS011;47397;48.194;11.632;2022-07-29T00:20:04;2.20;;;1.60;;
61531;SDS011;47397;48.194;11.632;2022-07-29T00:21:05;2.50;;;1.50;;
61531;SDS011;47397;48.194;11.632;2022-07-29T00:22:05;2.63;;;1.60;;
61531;SDS011;47397;48.194;11.632;2022-07-29T00:23:06;2.83;;;1.60;;
61531;SDS011;47397;48.194;11.632;2022-07-29T00:24:06;2.40;;;1.70;;
61531;SDS011;47397;48.194;11.632;2022-07-29T00:25:07;2.78;;;1.50;;
61531;SDS011;47397;48.194;11.632;2022-07-29T00:26:08;2.72;;;1.50;;
61531;SDS011;47397;48.194;11.632;2022-07-29T00:27:10;1.90;;;1.65;;
61531;SDS011;47397;48.194;11.632;2022-07-29T00:28:10;2.78;;;1.60;;
61531;SDS011;47397;48.194;11.632;2022-07-29T00:29:10;2.67;;;1.60;;
61531;SDS011;47397;48.194;11.632;2022-07-29T00:30:11;2.13;;;1.70;;
61531;SDS011;47397;48.194;11.632;2022-07-29T00:31:12;3.03;;;1.60;;
61531;SDS011;47397;48.194;11.632;2022-07-29T00:32:12;3.05;;;1.70;;
61531;SDS011;47397;48.194;11.632;2022-07-29T00:33:13;3.17;;;1.80;;
61531;SDS011;47397;48.194;11.632;2022-07-29T00:34:13;2.10;;;1.50;;
61531;SDS011;47397;48.194;11.632;2022-07-29T00:35:14;2.70;;;1.63;;
61531;SDS011;47397;48.194;11.632;2022-07-29T00:36:14;2.22;;;1.50;;
61531;SDS011;47397;48.194;11.632;2022-07-29T00:37:14;3.00;;;1.80;;
61531;SDS011;47397;48.194;11.632;2022-07-29T00:38:15;2.95;;;1.75;;
61531;SDS011;47397;48.194;11.632;2022-07-29T00:39:16;3.63;;;1.77;;
61531;SDS011;47397;48.194;11.632;2022-07-29T00:40:17;3.05;;;1.70;;
61531;SDS011;47397;48.194;11.632;2022-07-29T00:41:17;3.10;;;2.10;;
61531;SDS011;47397;48.194;11.632;2022-07-29T00:42:20;2.45;;;1.70;;
61531;SDS011;47397;48.194;11.632;2022-07-29T00:43:20;2.80;;;1.60;;
61531;SDS011;47397;48.194;11.632;2022-07-29T00:44:21;2.58;;;1.90;;
61531;SDS011;47397;48.194;11.632;2022-07-29T00:45:21;3.15;;;2.05;;
61531;SDS011;47397;48.194;11.632;2022-07-29T00:46:22;2.60;;;1.92;;
61531;SDS011;47397;48.194;11.632;2022-07-29T00:47:22;2.30;;;1.80;;
61531;SDS011;47397;48.194;11.632;2022-07-29T00:48:23;3.03;;;1.80;;
61531;SDS011;47397;48.194;11.632;2022-07-29T00:49:23;2.60;;;1.95;;
61531;SDS011;47397;48.194;11.632;2022-07-29T00:50:24;4.10;;;1.90;;
61531;SDS011;47397;48.194;11.632;2022-07-29T00:51:24;3.90;;;1.80;;
61531;SDS011;47397;48.194;11.632;2022-07-29T00:52:26;4.28;;;2.00;;
61531;SDS011;47397;48.194;11.632;2022-07-29T00:53:27;3.22;;;2.00;;
61531;SDS011;47397;48.194;11.632;2022-07-29T00:54:27;3.10;;;1.80;;
61531;SDS011;47397;48.194;11.632;2022-07-29T00:55:28;3.42;;;2.20;;
61531;SDS011;47397;48.194;11.632;2022-07-29T00:56:29;2.33;;;1.88;;
61531;SDS011;47397;48.194;11.632;2022-07-29T00:57:31;2.95;;;2.22;;
61531;SDS011;47397;48.194;11.632;2022-07-29T00:58:32;3.45;;;2.20;;
61531;SDS011;47397;48.194;11.632;2022-07-29T00:59:33;2.30;;;1.85;;
61531;SDS011;47397;48.194;11.632;2022-07-29T01:00:33;3.42;;;2.08;;
61531;SDS011;47397;48.194;11.632;2022-07-29T01:01:34;2.60;;;1.83;;
61531;SDS011;47397;48.194;11.632;2022-07-29T01:02:34;3.20;;;1.90;;
61531;SDS011;47397;48.194;11.632;2022-07-29T01:03:34;3.53;;;1.90;;
61531;SDS011;47397;48.194;11.632;2022-07-29T01:04:35;3.55;;;2.00;;
61531;SDS011;47397;48.194;11.632;2022-07-29T01:05:35;2.70;;;1.90;;
61531;SDS011;47397;48.194;11.632;2022-07-29T01:06:36;2.05;;;1.73;;
61531;SDS011;47397;48.194;11.632;2022-07-29T01:07:37;3.33;;;1.90;;
61531;SDS011;47397;48.194;11.632;2022-07-29T01:08:38;3.30;;;2.10;;
61531;SDS011;47397;48.194;11.632;2022-07-29T01:09:39;3.65;;;1.80;;
61531;SDS011;47397;48.194;11.632;2022-07-29T01:10:40;2.85;;;1.90;;
61531;SDS011;47397;48.194;11.632;2022-07-29T01:11:41;2.65;;;1.85;;
61531;SDS011;47397;48.194;11.632;2022-07-29T01:12:44;2.30;;;1.80;;
61531;SDS011;47397;48.194;11.632;2022-07-29T01:13:47;2.17;;;1.88;;
61531;SDS011;47397;48.194;11.632;2022-07-29T01:14:48;2.72;;;1.90;;
61531;SDS011;47397;48.194;11.632;2022-07-29T01:15:51;3.28;;;1.90;;
61531;SDS011;47397;48.194;11.632;2022-07-29T01:16:57;2.38;;;1.80;;
61531;SDS011;47397;48.194;11.632;2022-07-29T01:18:01;2.50;;;2.00;;
61531;SDS011;47397;48.194;11.632;2022-07-29T01:19:07;3.60;;;2.20;;
61531;SDS011;47397;48.194;11.632;2022-07-29T01:20:20;2.53;;;1.73;;
61531;SDS011;47397;48.194;11.632;2022-07-29T01:21:34;2.45;;;1.85;;
61531;SDS011;47397;48.194;11.632;2022-07-29T01:23:11;2.65;;;1.98;;
61531;SDS011;47397;48.194;11.632;2022-07-29T01:24:33;4.35;;;2.10;;
61531;SDS011;47397;48.194;11.632;2022-07-29T01:25:48;3.50;;;2.03;;
61531;SDS011;47397;48.194;11.632;2022-07-29T01:26:59;3.05;;;1.80;;
61531;SDS011;47397;48.194;11.632;2022-07-29T01:29:46;3.33;;;1.83;;
61531;SDS011;47397;48.194;11.632;2022-07-29T01:30:49;2.90;;;1.90;;
61531;SDS011;47397;48.194;11.632;2022-07-29T01:31:54;3.45;;;1.92;;
61531;SDS011;47397;48.194;11.632;2022-07-29T01:32:59;5.30;;;1.98;;
61531;SDS011;47397;48.194;11.632;2022-07-29T01:34:02;3.42;;;1.95;;
61531;SDS011;47397;48.194;11.632;2022-07-29T01:35:06;5.07;;;2.10;;
61531;SDS011;47397;48.194;11.632;2022-07-29T01:36:10;4.20;;;2.10;;
61531;SDS011;47397;48.194;11.632;2022-07-29T01:37:15;3.33;;;2.00;;
61531;SDS011;47397;48.194;11.632;2022-07-29T01:38:19;2.60;;;1.98;;
61531;SDS011;47397;48.194;11.632;2022-07-29T01:39:23;6.80;;;1.85;;
61531;SDS011;47397;48.194;11.632;2022-07-29T01:40:30;4.28;;;2.35;;
61531;SDS011;47397;48.194;11.632;2022-07-29T01:41:36;3.20;;;2.17;;
61531;SDS011;47397;48.194;11.632;2022-07-29T01:42:42;2.75;;;1.80;;
61531;SDS011;47397;48.194;11.632;2022-07-29T01:43:48;3.50;;;1.88;;
61531;SDS011;47397;48.194;11.632;2022-07-29T01:44:53;5.97;;;2.30;;
61531;SDS011;47397;48.194;11.632;2022-07-29T01:45:57;4.18;;;2.20;;
61531;SDS011;47397;48.194;11.632;2022-07-29T01:47:02;2.30;;;1.90;;
61531;SDS011;47397;48.194;11.632;2022-07-29T01:48:11;4.82;;;2.30;;
61531;SDS011;47397;48.194;11.632;2022-07-29T01:49:16;2.97;;;1.92;;
61531;SDS011;47397;48.194;11.632;2022-07-29T01:50:21;4.20;;;2.00;;
61531;SDS011;47397;48.194;11.632;2022-07-29T01:51:28;2.63;;;1.75;;
61531;SDS011;47397;48.194;11.632;2022-07-29T01:52:33;3.85;;;2.05;;
61531;SDS011;47397;48.194;11.632;2022-07-29T01:53:38;3.17;;;2.20;;
61531;SDS011;47397;48.194;11.632;2022-07-29T01:54:44;5.07;;;2.00;;
61531;SDS011;47397;48.194;11.632;2022-07-29T01:55:48;3.72;;;2.10;;
61531;SDS011;47397;48.194;11.632;2022-07-29T01:56:51;2.92;;;1.90;;
61531;SDS011;47397;48.194;11.632;2022-07-29T01:57:53;2.97;;;1.90;;
61531;SDS011;47397;48.194;11.632;2022-07-29T01:58:56;3.35;;;2.30;;
61531;SDS011;47397;48.194;11.632;2022-07-29T01:59:58;5.18;;;2.40;;
61531;SDS011;47397;48.194;11.632;2022-07-29T02:01:00;2.78;;;2.10;;
61531;SDS011;47397;48.194;11.632;2022-07-29T02:02:03;2.58;;;2.00;;
61531;SDS011;47397;48.194;11.632;2022-07-29T02:03:07;3.95;;;2.00;;
61531;SDS011;47397;48.194;11.632;2022-07-29T02:04:10;2.80;;;2.20;;
61531;SDS011;47397;48.194;11.632;2022-07-29T02:05:13;3.13;;;2.10;;
61531;SDS011;47397;48.194;11.632;2022-07-29T02:06:16;2.75;;;1.80;;
61531;SDS011;47397;48.194;11.632;2022-07-29T02:07:19;3.90;;;2.05;;
61531;SDS011;47397;48.194;11.632;2022-07-29T02:08:21;3.45;;;2.20;;
61531;SDS011;47397;48.194;11.632;2022-07-29T02:09:24;3.20;;;2.20;;
61531;SDS011;47397;48.194;11.632;2022-07-29T02:10:26;4.05;;;2.10;;
61531;SDS011;47397;48.194;11.632;2022-07-29T02:11:28;2.95;;;1.98;;
61531;SDS011;47397;48.194;11.632;2022-07-29T02:12:30;3.25;;;2.35;;
61531;SDS011;47397;48.194;11.632;2022-07-29T02:13:32;3.35;;;2.15;;
61531;SDS011;47397;48.194;11.632;2022-07-29T02:14:38;2.97;;;2.13;;
61531;SDS011;47397;48.194;11.632;2022-07-29T02:15:42;3.95;;;2.05;;
61531;SDS011;47397;48.194;11.632;2022-07-29T02:16:44;5.35;;;2.08;;
61531;SDS011;47397;48.194;11.632;2022-07-29T02:17:48;3.47;;;1.90;;
61531;SDS011;47397;48.194;11.632;2022-07-29T02:18:53;2.90;;;1.95;;
61531;SDS011;47397;48.194;11.632;2022-07-29T02:19:56;4.28;;;2.13;;
61531;SDS011;47397;48.194;11.632;2022-07-29T02:20:59;3.90;;;2.03;;
61531;SDS011;47397;48.194;11.632;2022-07-29T02:22:01;3.75;;;1.90;;
61531;SDS011;47397;48.194;11.632;2022-07-29T02:23:02;3.38;;;1.90;;
61531;SDS011;47397;48.194;11.632;2022-07-29T02:24:04;4.57;;;2.03;;
61531;SDS011;47397;48.194;11.632;2022-07-29T02:25:05;2.83;;;2.03;;
61531;SDS011;47397;48.194;11.632;2022-07-29T02:26:08;2.65;;;1.90;;
61531;SDS011;47397;48.194;11.632;2022-07-29T02:27:09;3.00;;;2.30;;
61531;SDS011;47397;48.194;11.632;2022-07-29T02:28:11;5.00;;;2.08;;
61531;SDS011;47397;48.194;11.632;2022-07-29T02:29:12;2.67;;;2.03;;
61531;SDS011;47397;48.194;11.632;2022-07-29T02:30:16;4.22;;;2.05;;
61531;SDS011;47397;48.194;11.632;2022-07-29T02:31:18;2.85;;;2.08;;
61531;SDS011;47397;48.194;11.632;2022-07-29T02:32:21;3.00;;;2.10;;
61531;SDS011;47397;48.194;11.632;2022-07-29T02:33:24;4.50;;;2.15;;
61531;SDS011;47397;48.194;11.632;2022-07-29T02:34:25;4.18;;;2.10;;
61531;SDS011;47397;48.194;11.632;2022-07-29T02:35:28;2.80;;;2.17;;
61531;SDS011;47397;48.194;11.632;2022-07-29T02:36:29;3.85;;;2.10;;
61531;SDS011;47397;48.194;11.632;2022-07-29T02:37:31;5.25;;;2.00;;
61531;SDS011;47397;48.194;11.632;2022-07-29T02:38:32;4.20;;;2.25;;
61531;SDS011;47397;48.194;11.632;2022-07-29T02:39:35;3.22;;;2.03;;
61531;SDS011;47397;48.194;11.632;2022-07-29T02:40:37;3.53;;;2.10;;
61531;SDS011;47397;48.194;11.632;2022-07-29T02:41:40;4.13;;;2.10;;
61531;SDS011;47397;48.194;11.632;2022-07-29T02:42:43;4.20;;;2.35;;
61531;SDS011;47397;48.194;11.632;2022-07-29T02:43:46;3.70;;;2.10;;
61531;SDS011;47397;48.194;11.632;2022-07-29T02:44:48;3.88;;;2.00;;
61531;SDS011;47397;48.194;11.632;2022-07-29T02:45:51;4.18;;;2.17;;
61531;SDS011;47397;48.194;11.632;2022-07-29T02:46:57;3.97;;;2.20;;
61531;SDS011;47397;48.194;11.632;2022-07-29T02:48:04;3.20;;;2.10;;
61531;SDS011;47397;48.194;11.632;2022-07-29T02:49:12;3.45;;;1.90;;
61531;SDS011;47397;48.194;11.632;2022-07-29T02:50:15;3.17;;;2.30;;
61531;SDS011;47397;48.194;11.632;2022-07-29T02:51:23;2.83;;;2.15;;
61531;SDS011;47397;48.194;11.632;2022-07-29T02:52:28;3.13;;;2.13;;
61531;SDS011;47397;48.194;11.632;2022-07-29T02:53:34;3.08;;;2.20;;
61531;SDS011;47397;48.194;11.632;2022-07-29T02:54:39;3.00;;;1.83;;
61531;SDS011;47397;48.194;11.632;2022-07-29T02:55:45;4.00;;;2.17;;
61531;SDS011;47397;48.194;11.632;2022-07-29T02:56:48;3.15;;;2.10;;
61531;SDS011;47397;48.194;11.632;2022-07-29T02:57:51;2.70;;;2.15;;
61531;SDS011;47397;48.194;11.632;2022-07-29T02:58:57;5.43;;;2.30;;
61531;SDS011;47397;48.194;11.632;2022-07-29T03:00:02;4.20;;;2.58;;
61531;SDS011;47397;48.194;11.632;2022-07-29T03:01:07;3.85;;;2.47;;
61531;SDS011;47397;48.194;11.632;2022-07-29T03:02:11;4.00;;;2.20;;
61531;SDS011;47397;48.194;11.632;2022-07-29T03:03:15;4.72;;;2.00;;
61531;SDS011;47397;48.194;11.632;2022-07-29T03:04:16;4.13;;;2.38;;
61531;SDS011;47397;48.194;11.632;2022-07-29T03:05:19;3.78;;;2.28;;
61531;SDS011;47397;48.194;11.632;2022-07-29T03:06:22;3.08;;;2.38;;
61531;SDS011;47397;48.194;11.632;2022-07-29T03:07:25;3.92;;;2.40;;
61531;SDS011;47397;48.194;11.632;2022-07-29T03:08:25;3.38;;;2.08;;
61531;SDS011;47397;48.194;11.632;2022-07-29T03:09:27;3.92;;;2.40;;
61531;SDS011;47397;48.194;11.632;2022-07-29T03:10:28;3.45;;;2.00;;
61531;SDS011;47397;48.194;11.632;2022-07-29T03:11:30;5.82;;;2.38;;
61531;SDS011;47397;48.194;11.632;2022-07-29T03:12:31;3.13;;;2.40;;
61531;SDS011;47397;48.194;11.632;2022-07-29T03:13:31;2.80;;;2.10;;
61531;SDS011;47397;48.194;11.632;2022-07-29T03:14:32;3.13;;;2.53;;
61531;SDS011;47397;48.194;11.632;2022-07-29T03:15:33;3.70;;;2.40;;
61531;SDS011;47397;48.194;11.632;2022-07-29T03:16:35;4.63;;;2.33;;
61531;SDS011;47397;48.194;11.632;2022-07-29T03:17:36;3.33;;;2.15;;
61531;SDS011;47397;48.194;11.632;2022-07-29T03:18:38;4.88;;;2.55;;
61531;SDS011;47397;48.194;11.632;2022-07-29T03:19:39;4.22;;;2.35;;
61531;SDS011;47397;48.194;11.632;2022-07-29T03:20:39;4.28;;;2.20;;
61531;SDS011;47397;48.194;11.632;2022-07-29T03:21:40;5.28;;;2.70;;
61531;SDS011;47397;48.194;11.632;2022-07-29T03:22:41;4.32;;;2.33;;
61531;SDS011;47397;48.194;11.632;2022-07-29T03:23:43;4.50;;;2.58;;
61531;SDS011;47397;48.194;11.632;2022-07-29T03:24:44;7.40;;;2.55;;
61531;SDS011;47397;48.194;11.632;2022-07-29T03:25:44;3.95;;;2.35;;
61531;SDS011;47397;48.194;11.632;2022-07-29T03:26:45;3.10;;;2.25;;
61531;SDS011;47397;48.194;11.632;2022-07-29T03:27:46;3.10;;;2.10;;
61531;SDS011;47397;48.194;11.632;2022-07-29T03:28:47;4.18;;;2.30;;
61531;SDS011;47397;48.194;11.632;2022-07-29T03:29:48;3.50;;;2.33;;
61531;SDS011;47397;48.194;11.632;2022-07-29T03:30:48;3.90;;;2.28;;
61531;SDS011;47397;48.194;11.632;2022-07-29T03:31:50;5.10;;;2.65;;
61531;SDS011;47397;48.194;11.632;2022-07-29T03:32:51;4.32;;;2.40;;
61531;SDS011;47397;48.194;11.632;2022-07-29T03:33:52;3.67;;;2.50;;
61531;SDS011;47397;48.194;11.632;2022-07-29T03:34:52;4.38;;;2.20;;
61531;SDS011;47397;48.194;11.632;2022-07-29T03:35:53;4.50;;;2.33;;
61531;SDS011;47397;48.194;11.632;2022-07-29T03:36:53;3.88;;;2.40;;
61531;SDS011;47397;48.194;11.632;2022-07-29T03:37:54;3.97;;;2.42;;
61531;SDS011;47397;48.194;11.632;2022-07-29T03:38:54;4.82;;;2.20;;
61531;SDS011;47397;48.194;11.632;2022-07-29T03:39:56;3.72;;;2.25;;
61531;SDS011;47397;48.194;11.632;2022-07-29T03:40:58;4.65;;;2.50;;
61531;SDS011;47397;48.194;11.632;2022-07-29T03:42:01;6.55;;;2.65;;
61531;SDS011;47397;48.194;11.632;2022-07-29T03:43:05;4.72;;;2.60;;
61531;SDS011;47397;48.194;11.632;2022-07-29T03:44:07;4.53;;;2.53;;
61531;SDS011;47397;48.194;11.632;2022-07-29T03:45:10;4.28;;;2.50;;
61531;SDS011;47397;48.194;11.632;2022-07-29T03:46:12;3.83;;;2.20;;
61531;SDS011;47397;48.194;11.632;2022-07-29T03:47:15;4.68;;;2.40;;
61531;SDS011;47397;48.194;11.632;2022-07-29T03:48:19;3.17;;;2.58;;
61531;SDS011;47397;48.194;11.632;2022-07-29T03:49:22;5.15;;;2.17;;
61531;SDS011;47397;48.194;11.632;2022-07-29T03:50:23;5.80;;;2.33;;
61531;SDS011;47397;48.194;11.632;2022-07-29T03:51:24;4.90;;;2.40;;
61531;SDS011;47397;48.194;11.632;2022-07-29T03:52:25;3.17;;;2.30;;
61531;SDS011;47397;48.194;11.632;2022-07-29T03:53:26;5.30;;;2.50;;
61531;SDS011;47397;48.194;11.632;2022-07-29T03:54:26;4.80;;;2.30;;
61531;SDS011;47397;48.194;11.632;2022-07-29T03:55:28;5.97;;;2.40;;
61531;SDS011;47397;48.194;11.632;2022-07-29T03:56:32;5.72;;;2.60;;
61531;SDS011;47397;48.194;11.632;2022-07-29T03:57:37;5.50;;;2.65;;
61531;SDS011;47397;48.194;11.632;2022-07-29T03:58:39;3.58;;;2.53;;
61531;SDS011;47397;48.194;11.632;2022-07-29T03:59:40;5.18;;;2.58;;
61531;SDS011;47397;48.194;11.632;2022-07-29T04:00:41;4.45;;;2.58;;
61531;SDS011;47397;48.194;11.632;2022-07-29T04:01:43;3.80;;;2.33;;
61531;SDS011;47397;48.194;11.632;2022-07-29T04:02:45;3.15;;;2.50;;
61531;SDS011;47397;48.194;11.632;2022-07-29T04:03:45;3.35;;;2.20;;
61531;SDS011;47397;48.194;11.632;2022-07-29T04:04:47;4.70;;;2.38;;
61531;SDS011;47397;48.194;11.632;2022-07-29T04:05:57;3.38;;;2.50;;
61531;SDS011;47397;48.194;11.632;2022-07-29T04:06:58;3.97;;;2.22;;
61531;SDS011;47397;48.194;11.632;2022-07-29T04:07:58;3.28;;;2.17;;
61531;SDS011;47397;48.194;11.632;2022-07-29T04:08:59;3.40;;;2.30;;
61531;SDS011;47397;48.194;11.632;2022-07-29T04:09:59;3.70;;;2.40;;
61531;SDS011;47397;48.194;11.632;2022-07-29T04:11:00;4.57;;;2.40;;
61531;SDS011;47397;48.194;11.632;2022-07-29T04:12:00;3.95;;;2.63;;
61531;SDS011;47397;48.194;11.632;2022-07-29T04:13:00;2.92;;;2.30;;
61531;SDS011;47397;48.194;11.632;2022-07-29T04:14:01;2.95;;;2.40;;
61531;SDS011;47397;48.194;11.632;2022-07-29T04:15:02;3.13;;;2.30;;
61531;SDS011;47397;48.194;11.632;2022-07-29T04:16:02;4.57;;;2.60;;
61531;SDS011;47397;48.194;11.632;2022-07-29T04:17:03;4.72;;;2.35;;
61531;SDS011;47397;48.194;11.632;2022-07-29T04:18:06;3.30;;;2.28;;
61531;SDS011;47397;48.194;11.632;2022-07-29T04:19:06;3.70;;;2.58;;
61531;SDS011;47397;48.194;11.632;2022-07-29T04:20:07;4.55;;;2.45;;
61531;SDS011;47397;48.194;11.632;2022-07-29T04:21:08;4.13;;;2.50;;
61531;SDS011;47397;48.194;11.632;2022-07-29T04:22:09;4.47;;;2.30;;
61531;SDS011;47397;48.194;11.632;2022-07-29T04:23:09;7.85;;;2.90;;
61531;SDS011;47397;48.194;11.632;2022-07-29T04:24:10;5.25;;;2.60;;
61531;SDS011;47397;48.194;11.632;2022-07-29T04:25:10;6.30;;;2.33;;
61531;SDS011;47397;48.194;11.632;2022-07-29T04:26:10;4.55;;;2.22;;
61531;SDS011;47397;48.194;11.632;2022-07-29T04:27:11;4.25;;;2.40;;
61531;SDS011;47397;48.194;11.632;2022-07-29T04:28:11;3.10;;;2.28;;
61531;SDS011;47397;48.194;11.632;2022-07-29T04:29:12;6.32;;;2.60;;
61531;SDS011;47397;48.194;11.632;2022-07-29T04:30:12;5.28;;;2.58;;
61531;SDS011;47397;48.194;11.632;2022-07-29T04:31:13;4.95;;;2.55;;
61531;SDS011;47397;48.194;11.632;2022-07-29T04:32:13;4.20;;;2.70;;
61531;SDS011;47397;48.194;11.632;2022-07-29T04:33:15;5.82;;;2.63;;
61531;SDS011;47397;48.194;11.632;2022-07-29T04:34:16;4.55;;;2.70;;
61531;SDS011;47397;48.194;11.632;2022-07-29T04:35:16;5.70;;;2.42;;
61531;SDS011;47397;48.194;11.632;2022-07-29T04:36:17;5.07;;;2.50;;
61531;SDS011;47397;48.194;11.632;2022-07-29T04:37:17;5.35;;;2.60;;
61531;SDS011;47397;48.194;11.632;2022-07-29T04:38:18;3.78;;;2.30;;
61531;SDS011;47397;48.194;11.632;2022-07-29T04:39:19;3.47;;;2.40;;
61531;SDS011;47397;48.194;11.632;2022-07-29T04:40:19;3.08;;;2.47;;
61531;SDS011;47397;48.194;11.632;2022-07-29T04:41:20;4.07;;;2.20;;
61531;SDS011;47397;48.194;11.632;2022-07-29T04:42:20;3.60;;;2.45;;
61531;SDS011;47397;48.194;11.632;2022-07-29T04:43:21;2.70;;;2.20;;
61531;SDS011;47397;48.194;11.632;2022-07-29T04:44:21;3.83;;;2.70;;
61531;SDS011;47397;48.194;11.632;2022-07-29T04:45:22;4.40;;;2.63;;
61531;SDS011;47397;48.194;11.632;2022-07-29T04:46:22;5.97;;;2.60;;
61531;SDS011;47397;48.194;11.632;2022-07-29T04:47:23;6.50;;;2.45;;
61531;SDS011;47397;48.194;11.632;2022-07-29T04:48:25;3.95;;;2.40;;
61531;SDS011;47397;48.194;11.632;2022-07-29T04:49:25;4.38;;;2.40;;
61531;SDS011;47397;48.194;11.632;2022-07-29T04:50:26;4.65;;;2.30;;
61531;SDS011;47397;48.194;11.632;2022-07-29T04:51:26;4.15;;;2.30;;
61531;SDS011;47397;48.194;11.632;2022-07-29T04:52:27;5.97;;;2.53;;
61531;SDS011;47397;48.194;11.632;2022-07-29T04:53:27;4.20;;;2.38;;
61531;SDS011;47397;48.194;11.632;2022-07-29T04:54:28;5.00;;;2.50;;
61531;SDS011;47397;48.194;11.632;2022-07-29T04:55:28;3.97;;;2.35;;
61531;SDS011;47397;48.194;11.632;2022-07-29T04:56:29;4.78;;;2.40;;
61531;SDS011;47397;48.194;11.632;2022-07-29T04:57:29;5.43;;;2.60;;
61531;SDS011;47397;48.194;11.632;2022-07-29T04:58:30;4.68;;;2.38;;
61531;SDS011;47397;48.194;11.632;2022-07-29T04:59:30;4.85;;;2.38;;
61531;SDS011;47397;48.194;11.632;2022-07-29T05:00:33;4.03;;;2.20;;
61531;SDS011;47397;48.194;11.632;2022-07-29T05:01:34;3.53;;;2.15;;
61531;SDS011;47397;48.194;11.632;2022-07-29T05:02:35;3.78;;;2.50;;
61531;SDS011;47397;48.194;11.632;2022-07-29T05:03:36;5.90;;;2.70;;
61531;SDS011;47397;48.194;11.632;2022-07-29T05:04:37;5.10;;;2.55;;
61531;SDS011;47397;48.194;11.632;2022-07-29T05:05:37;3.97;;;2.45;;
61531;SDS011;47397;48.194;11.632;2022-07-29T05:06:38;4.38;;;2.60;;
61531;SDS011;47397;48.194;11.632;2022-07-29T05:07:38;4.07;;;2.38;;
61531;SDS011;47397;48.194;11.632;2022-07-29T05:08:39;4.70;;;2.47;;
61531;SDS011;47397;48.194;11.632;2022-07-29T05:09:39;3.25;;;2.33;;
61531;SDS011;47397;48.194;11.632;2022-07-29T05:10:40;3.33;;;2.30;;
61531;SDS011;47397;48.194;11.632;2022-07-29T05:11:40;6.13;;;2.40;;
61531;SDS011;47397;48.194;11.632;2022-07-29T05:12:41;4.15;;;2.78;;
61531;SDS011;47397;48.194;11.632;2022-07-29T05:13:41;5.47;;;2.35;;
61531;SDS011;47397;48.194;11.632;2022-07-29T05:14:42;5.32;;;2.33;;
61531;SDS011;47397;48.194;11.632;2022-07-29T05:15:42;4.03;;;2.42;;
61531;SDS011;47397;48.194;11.632;2022-07-29T05:16:43;3.10;;;2.40;;
61531;SDS011;47397;48.194;11.632;2022-07-29T05:17:43;4.45;;;2.53;;
61531;SDS011;47397;48.194;11.632;2022-07-29T05:18:45;3.92;;;2.30;;
61531;SDS011;47397;48.194;11.632;2022-07-29T05:19:45;2.97;;;2.40;;
61531;SDS011;47397;48.194;11.632;2022-07-29T05:20:46;3.97;;;2.47;;
61531;SDS011;47397;48.194;11.632;2022-07-29T05:21:46;4.50;;;2.22;;
61531;SDS011;47397;48.194;11.632;2022-07-29T05:22:47;3.30;;;2.30;;
61531;SDS011;47397;48.194;11.632;2022-07-29T05:23:47;3.15;;;2.20;;
61531;SDS011;47397;48.194;11.632;2022-07-29T05:24:48;3.17;;;2.25;;
61531;SDS011;47397;48.194;11.632;2022-07-29T05:25:48;3.15;;;2.25;;
61531;SDS011;47397;48.194;11.632;2022-07-29T05:26:49;4.32;;;2.35;;
61531;SDS011;47397;48.194;11.632;2022-07-29T05:27:49;2.90;;;2.40;;
61531;SDS011;47397;48.194;11.632;2022-07-29T05:28:49;4.05;;;2.38;;
61531;SDS011;47397;48.194;11.632;2022-07-29T05:29:50;3.30;;;2.28;;
61531;SDS011;47397;48.194;11.632;2022-07-29T05:30:50;3.50;;;2.25;;
61531;SDS011;47397;48.194;11.632;2022-07-29T05:31:51;4.03;;;2.33;;
61531;SDS011;47397;48.194;11.632;2022-07-29T05:32:51;3.15;;;2.30;;
61531;SDS011;47397;48.194;11.632;2022-07-29T05:33:53;2.50;;;1.98;;
61531;SDS011;47397;48.194;11.632;2022-07-29T05:34:53;3.55;;;2.20;;
61531;SDS011;47397;48.194;11.632;2022-07-29T05:35:54;3.40;;;2.08;;
61531;SDS011;47397;48.194;11.632;2022-07-29T05:36:54;3.65;;;2.33;;
61531;SDS011;47397;48.194;11.632;2022-07-29T05:37:55;4.38;;;2.58;;
61531;SDS011;47397;48.194;11.632;2022-07-29T05:38:55;2.53;;;1.92;;
61531;SDS011;47397;48.194;11.632;2022-07-29T05:39:56;2.78;;;2.13;;
61531;SDS011;47397;48.194;11.632;2022-07-29T05:40:56;3.35;;;2.15;;
61531;SDS011;47397;48.194;11.632;2022-07-29T05:41:57;4.05;;;2.40;;
61531;SDS011;47397;48.194;11.632;2022-07-29T05:42:57;2.80;;;2.00;;
61531;SDS011;47397;48.194;11.632;2022-07-29T05:43:58;3.78;;;2.30;;
61531;SDS011;47397;48.194;11.632;2022-07-29T05:44:58;3.80;;;2.10;;
61531;SDS011;47397;48.194;11.632;2022-07-29T05:45:59;4.85;;;2.10;;
61531;SDS011;47397;48.194;11.632;2022-07-29T05:46:59;2.88;;;2.10;;
61531;SDS011;47397;48.194;11.632;2022-07-29T05:47:59;3.88;;;1.92;;
61531;SDS011;47397;48.194;11.632;2022-07-29T05:49:01;4.30;;;2.30;;
61531;SDS011;47397;48.194;11.632;2022-07-29T05:50:02;3.15;;;1.90;;
61531;SDS011;47397;48.194;11.632;2022-07-29T05:51:03;2.70;;;1.80;;
61531;SDS011;47397;48.194;11.632;2022-07-29T05:52:03;2.40;;;1.85;;
61531;SDS011;47397;48.194;11.632;2022-07-29T05:53:04;2.75;;;1.98;;
61531;SDS011;47397;48.194;11.632;2022-07-29T05:54:05;3.17;;;2.30;;
61531;SDS011;47397;48.194;11.632;2022-07-29T05:55:05;3.10;;;2.33;;
61531;SDS011;47397;48.194;11.632;2022-07-29T05:56:07;3.75;;;2.20;;
61531;SDS011;47397;48.194;11.632;2022-07-29T05:57:07;4.45;;;1.88;;
61531;SDS011;47397;48.194;11.632;2022-07-29T05:58:08;2.88;;;2.03;;
61531;SDS011;47397;48.194;11.632;2022-07-29T05:59:08;2.33;;;1.85;;
61531;SDS011;47397;48.194;11.632;2022-07-29T06:00:09;3.00;;;2.00;;
61531;SDS011;47397;48.194;11.632;2022-07-29T06:01:10;2.97;;;2.22;;
61531;SDS011;47397;48.194;11.632;2022-07-29T06:02:10;3.65;;;2.30;;
61531;SDS011;47397;48.194;11.632;2022-07-29T06:03:11;3.88;;;2.20;;
61531;SDS011;47397;48.194;11.632;2022-07-29T06:04:13;2.70;;;2.00;;
61531;SDS011;47397;48.194;11.632;2022-07-29T06:05:13;3.75;;;2.13;;
61531;SDS011;47397;48.194;11.632;2022-07-29T06:06:14;3.75;;;2.20;;
61531;SDS011;47397;48.194;11.632;2022-07-29T06:07:14;2.53;;;1.88;;
61531;SDS011;47397;48.194;11.632;2022-07-29T06:08:15;3.22;;;2.05;;
61531;SDS011;47397;48.194;11.632;2022-07-29T06:09:15;2.72;;;1.88;;